Time;durP1;ratioP1;P1;durP2;ratioP2;P2;SDS_P1;SDS_P2;PMS_P1;PMS_P2;Temp;Humidity;BMP_temperature;BMP_pressure;BME280_temperature;BME280_humidity;BME280_pressure;Samples;Min_cycle;Max_cycle;Signal;HPM_P1;HPM_P2
2022/06/20 00:03:09;;;;;;;;;;;25.30;73.80;;;;;;6946156;28;19925;-83
2022/06/20 00:06:31;;;;;;;;;;;25.40;74.10;;;;;;6945665;28;19921;-82
2022/06/20 00:09:53;;;;;;;;;;;25.40;74.10;;;;;;6943954;28;20649;-83
2022/06/20 00:13:18;;;;;;;;;;;25.30;74.30;;;;;;6946047;28;19921;-83
2022/06/20 00:16:41;;;;;;;;;;;25.30;74.70;;;;;;6944958;28;19921;-84
2022/06/20 00:20:05;;;;;;;;;;;25.40;74.90;;;;;;6945330;28;19925;-83
2022/06/20 00:23:27;;;;;;;;;;;25.30;74.80;;;;;;6945826;28;19921;-83
2022/06/20 00:26:49;;;;;;;;;;;25.30;75.90;;;;;;6945213;28;19921;-83
2022/06/20 00:30:13;;;;;;;;;;;25.30;75.80;;;;;;6945192;28;19921;-84
2022/06/20 00:33:35;;;;;;;;;;;25.30;75.60;;;;;;6944953;28;19921;-83
2022/06/20 00:36:58;;;;;;;;;;;25.30;75.60;;;;;;6945039;28;19976;-83
2022/06/20 00:40:24;;;;;;;;;;;25.30;75.60;;;;;;6944749;28;19921;-83
2022/06/20 00:43:49;;;;;;;;;;;25.20;74.60;;;;;;6944636;28;19924;-84
2022/06/20 00:47:15;;;;;;;;;;;25.20;75.30;;;;;;6944789;28;19928;-84
2022/06/20 00:50:37;;;;;;;;;;;25.20;75.70;;;;;;6947007;28;19928;-83
2022/06/20 00:54:06;;;;;;;;;;;25.20;75.40;;;;;;6948668;28;19928;-85
2022/06/20 00:57:31;;;;;;;;;;;25.10;75.10;;;;;;6944597;28;19944;-84
2022/06/20 01:00:53;;;;;;;;;;;25.00;75.70;;;;;;6943781;28;19925;-83
2022/06/20 01:04:17;;;;;;;;;;;24.90;76.00;;;;;;6944245;28;19921;-84
2022/06/20 01:07:43;;;;;;;;;;;24.90;75.80;;;;;;6942995;28;19925;-84
2022/06/20 01:11:08;;;;;;;;;;;24.80;76.20;;;;;;6943189;28;19921;-83
2022/06/20 01:14:34;;;;;;;;;;;24.80;76.40;;;;;;6943214;28;19928;-82
2022/06/20 01:17:56;;;;;;;;;;;24.80;75.20;;;;;;6944408;28;19921;-84
2022/06/20 01:21:21;;;;;;;;;;;24.90;74.60;;;;;;6943964;28;19971;-83
2022/06/20 01:24:48;;;;;;;;;;;24.80;74.10;;;;;;6942934;28;19928;-84
2022/06/20 01:28:15;;;;;;;;;;;24.50;77.50;;;;;;6943986;28;19921;-84
2022/06/20 01:31:41;;;;;;;;;;;24.30;77.70;;;;;;6941763;28;19928;-83
2022/06/20 01:35:07;;;;;;;;;;;24.20;79.30;;;;;;6929379;28;19925;-84
2022/06/20 01:38:29;;;;;;;;;;;24.10;80.20;;;;;;6943701;28;19921;-84
2022/06/20 01:49:15;;;;;;;;;;;24.20;81.70;;;;;;6937619;28;20007;-83
2022/06/20 01:52:39;;;;;;;;;;;24.20;82.00;;;;;;6950096;28;19928;-83
2022/06/20 01:56:01;;;;;;;;;;;24.20;82.20;;;;;;6942737;28;20016;-83
2022/06/20 01:59:27;;;;;;;;;;;24.20;81.50;;;;;;6942625;28;20290;-84
2022/06/20 02:02:53;;;;;;;;;;;24.10;82.60;;;;;;6942546;28;20283;-83
2022/06/20 02:06:17;;;;;;;;;;;24.20;82.00;;;;;;6942123;28;19921;-82
2022/06/20 02:09:40;;;;;;;;;;;24.20;81.20;;;;;;6942448;28;19920;-82
2022/06/20 02:13:03;;;;;;;;;;;24.20;81.40;;;;;;6948687;28;19921;-84
2022/06/20 02:16:26;;;;;;;;;;;24.10;81.30;;;;;;6953744;28;20378;-85
2022/06/20 02:19:51;;;;;;;;;;;24.10;81.60;;;;;;6957139;28;19925;-85
2022/06/20 02:23:14;;;;;;;;;;;24.10;81.80;;;;;;6945450;28;19929;-83
2022/06/20 02:26:38;;;;;;;;;;;23.80;83.20;;;;;;6945308;28;20378;-83
2022/06/20 02:30:02;;;;;;;;;;;23.50;84.70;;;;;;6947714;28;19960;-83
2022/06/20 02:33:26;;;;;;;;;;;23.40;85.20;;;;;;6945243;28;20016;-82
2022/06/20 02:36:50;;;;;;;;;;;23.60;85.40;;;;;;6943518;28;20015;-82
2022/06/20 02:40:14;;;;;;;;;;;23.70;84.60;;;;;;6942246;28;20258;-83
2022/06/20 02:43:40;;;;;;;;;;;23.70;84.70;;;;;;6941325;28;20358;-82
2022/06/20 02:47:04;;;;;;;;;;;23.60;85.20;;;;;;6943429;28;19928;-83
2022/06/20 02:50:30;;;;;;;;;;;23.60;83.60;;;;;;6942132;28;20030;-82
2022/06/20 02:53:57;;;;;;;;;;;23.70;81.80;;;;;;6941276;28;19932;-83
2022/06/20 02:57:30;;;;;;;;;;;23.80;83.60;;;;;;6935133;28;19922;-82
2022/06/20 03:00:57;;;;;;;;;;;23.70;84.90;;;;;;6933202;28;19932;-82
2022/06/20 03:04:19;;;;;;;;;;;23.50;85.80;;;;;;6940909;28;19944;-82
2022/06/20 03:07:43;;;;;;;;;;;23.20;86.00;;;;;;6942422;28;19932;-82
2022/06/20 03:11:07;;;;;;;;;;;23.00;87.90;;;;;;6942342;28;19924;-82
2022/06/20 03:14:36;;;;;;;;;;;22.80;88.70;;;;;;6941863;28;20263;-82
2022/06/20 03:17:59;;;;;;;;;;;22.50;89.70;;;;;;6947331;28;19960;-79
2022/06/20 03:21:23;;;;;;;;;;;22.50;94.40;;;;;;6947163;28;20282;-78
2022/06/20 03:24:46;;;;;;;;;;;22.50;96.80;;;;;;6946075;28;19920;-78
2022/06/20 03:28:12;;;;;;;;;;;22.60;99.10;;;;;;6946727;28;20346;-78
2022/06/20 03:31:34;;;;;;;;;;;22.70;99.00;;;;;;6945620;28;20017;-79
2022/06/20 03:34:56;;;;;;;;;;;22.80;99.90;;;;;;6947525;28;20366;-80
2022/06/20 03:38:19;;;;;;;;;;;22.80;99.90;;;;;;6947002;28;19921;-81
2022/06/20 03:41:41;;;;;;;;;;;22.70;99.90;;;;;;6946024;28;19921;-78
2022/06/20 03:45:07;;;;;;;;;;;22.70;99.90;;;;;;6946475;28;20038;-79
2022/06/20 03:48:33;;;;;;;;;;;22.70;99.90;;;;;;6945943;28;20061;-79
2022/06/20 03:51:58;;;;;;;;;;;22.70;99.90;;;;;;6945895;28;19990;-79
2022/06/20 03:55:26;;;;;;;;;;;22.60;99.90;;;;;;6946590;28;19928;-79
2022/06/20 03:58:50;;;;;;;;;;;22.60;99.90;;;;;;6945976;28;19975;-79
2022/06/20 04:02:18;;;;;;;;;;;22.70;99.90;;;;;;6945484;28;20298;-79
2022/06/20 04:05:45;;;;;;;;;;;22.70;99.90;;;;;;6945802;28;20286;-79
2022/06/20 04:13:03;;;;;;;;;;;22.70;99.90;;;;;;6931001;28;20302;-77
2022/06/20 04:16:30;;;;;;;;;;;22.50;99.90;;;;;;6944865;28;19924;-75
2022/06/20 04:19:53;;;;;;;;;;;22.30;99.90;;;;;;6945150;28;19921;-76
2022/06/20 04:23:18;;;;;;;;;;;22.30;99.90;;;;;;6931083;28;20042;-79
2022/06/20 04:26:44;;;;;;;;;;;22.30;99.90;;;;;;6940581;28;19960;-79
2022/06/20 04:30:09;;;;;;;;;;;22.20;99.90;;;;;;6946250;28;20380;-80
2022/06/20 04:33:34;;;;;;;;;;;22.20;99.90;;;;;;6946025;28;19928;-79
2022/06/20 04:37:00;;;;;;;;;;;22.30;99.90;;;;;;6946055;28;19927;-79
2022/06/20 04:40:24;;;;;;;;;;;22.30;99.90;;;;;;6945819;28;19992;-79
2022/06/20 04:43:53;;;;;;;;;;;22.20;99.90;;;;;;6945808;28;19927;-78
2022/06/20 04:47:34;;;;;;;;;;;22.00;99.90;;;;;;6945760;28;19932;-80
2022/06/20 04:50:58;;;;;;;;;;;22.00;99.90;;;;;;6945769;28;19925;-79
2022/06/20 04:54:22;;;;;;;;;;;22.00;99.90;;;;;;6945829;28;19943;-80
2022/06/20 04:57:44;;;;;;;;;;;22.20;99.90;;;;;;6945448;28;19928;-78
2022/06/20 05:01:08;;;;;;;;;;;22.20;99.90;;;;;;6944199;28;19964;-81
2022/06/20 05:04:32;;;;;;;;;;;22.30;99.90;;;;;;6947228;28;19921;-79
2022/06/20 05:07:54;;;;;;;;;;;22.30;99.90;;;;;;6945597;28;19921;-79
2022/06/20 05:11:20;;;;;;;;;;;22.30;99.90;;;;;;6945323;28;20378;-80
2022/06/20 05:14:47;;;;;;;;;;;22.30;99.90;;;;;;6945281;28;19921;-81
2022/06/20 05:18:16;;;;;;;;;;;22.30;99.90;;;;;;6945171;28;19995;-76
2022/06/20 05:21:40;;;;;;;;;;;22.40;99.90;;;;;;6945122;28;19928;-81
2022/06/20 05:25:09;;;;;;;;;;;22.40;99.90;;;;;;6944594;28;20402;-80
2022/06/20 05:28:33;;;;;;;;;;;22.50;99.90;;;;;;6944704;28;19921;-78
2022/06/20 05:31:57;;;;;;;;;;;22.60;99.90;;;;;;6944678;28;20312;-78
2022/06/20 05:35:22;;;;;;;;;;;22.60;99.90;;;;;;6944453;28;20050;-80
2022/06/20 05:38:49;;;;;;;;;;;22.60;99.90;;;;;;6944591;28;20402;-80
2022/06/20 05:42:13;;;;;;;;;;;22.70;99.90;;;;;;6944410;28;19999;-78
2022/06/20 05:45:36;;;;;;;;;;;22.60;99.90;;;;;;6945605;28;19921;-78
2022/06/20 05:49:03;;;;;;;;;;;22.40;99.90;;;;;;6944671;28;19921;-78
2022/06/20 05:52:27;;;;;;;;;;;22.40;99.90;;;;;;6946440;28;19928;-78
2022/06/20 05:55:49;;;;;;;;;;;22.50;99.90;;;;;;6946684;28;19925;-79
2022/06/20 05:59:32;;;;;;;;;;;22.50;99.90;;;;;;6946365;28;19921;-78
2022/06/20 06:02:58;;;;;;;;;;;22.50;99.90;;;;;;6949216;28;20375;-80
2022/06/20 06:06:23;;;;;;;;;;;22.50;99.90;;;;;;6944861;28;19928;-78
2022/06/20 06:09:49;;;;;;;;;;;22.60;99.90;;;;;;6944422;28;19928;-78
2022/06/20 06:13:18;;;;;;;;;;;22.60;99.90;;;;;;6942548;28;19986;-79
2022/06/20 06:16:49;;;;;;;;;;;22.60;99.90;;;;;;6943514;28;19928;-78
2022/06/20 06:20:17;;;;;;;;;;;22.70;99.90;;;;;;6943617;28;19967;-79
2022/06/20 06:23:39;;;;;;;;;;;22.70;99.90;;;;;;6943933;28;20012;-78
2022/06/20 06:27:02;;;;;;;;;;;22.90;99.90;;;;;;6943190;28;19971;-78
2022/06/20 06:30:28;;;;;;;;;;;23.00;99.90;;;;;;6943421;28;20332;-79
2022/06/20 06:33:53;;;;;;;;;;;23.00;99.90;;;;;;6943125;28;19921;-78
2022/06/20 06:37:20;;;;;;;;;;;23.00;99.90;;;;;;6943150;28;19928;-78
2022/06/20 06:40:47;;;;;;;;;;;23.10;99.90;;;;;;6943096;28;20362;-79
2022/06/20 06:44:17;;;;;;;;;;;23.20;99.90;;;;;;6942762;28;20374;-79
2022/06/20 06:47:41;;;;;;;;;;;23.20;99.90;;;;;;6943041;28;19921;-79
2022/06/20 06:51:07;;;;;;;;;;;23.30;99.90;;;;;;6942474;28;19973;-79
2022/06/20 06:54:46;;;;;;;;;;;23.30;99.90;;;;;;6942895;28;19967;-79
2022/06/20 06:58:14;;;;;;;;;;;23.40;99.90;;;;;;6942782;28;19921;-79
2022/06/20 07:01:39;;;;;;;;;;;23.50;99.90;;;;;;6942596;28;20014;-79
2022/06/20 07:05:04;;;;;;;;;;;23.50;99.90;;;;;;6942625;28;19968;-80
2022/06/20 07:08:29;;;;;;;;;;;23.50;99.90;;;;;;6942713;28;19955;-79
2022/06/20 07:12:12;;;;;;;;;;;23.50;99.90;;;;;;6942720;28;20374;-79
2022/06/20 07:15:35;;;;;;;;;;;23.50;99.90;;;;;;6942477;28;19925;-79
2022/06/20 07:18:58;;;;;;;;;;;23.40;99.90;;;;;;6942458;28;19931;-80
2022/06/20 07:22:21;;;;;;;;;;;23.60;99.90;;;;;;6942355;28;19984;-79
2022/06/20 07:25:47;;;;;;;;;;;23.70;99.90;;;;;;6942296;28;19921;-77
2022/06/20 07:29:16;;;;;;;;;;;23.70;99.90;;;;;;6942560;28;19985;-78
2022/06/20 07:32:41;;;;;;;;;;;23.80;99.90;;;;;;6942256;28;19975;-77
2022/06/20 07:36:05;;;;;;;;;;;23.90;99.90;;;;;;6942342;28;19928;-79
2022/06/20 07:39:31;;;;;;;;;;;24.00;99.90;;;;;;6942099;28;20018;-78
2022/06/20 07:42:55;;;;;;;;;;;24.10;99.90;;;;;;6942138;28;19960;-79
2022/06/20 07:46:22;;;;;;;;;;;24.20;99.90;;;;;;6942216;28;19921;-78
2022/06/20 07:49:47;;;;;;;;;;;24.30;99.90;;;;;;6942124;28;19963;-77
2022/06/20 07:53:12;;;;;;;;;;;24.40;99.90;;;;;;6942131;28;19921;-78
2022/06/20 07:56:39;;;;;;;;;;;24.50;99.90;;;;;;6940684;28;19928;-77
2022/06/20 08:00:06;;;;;;;;;;;24.50;99.90;;;;;;6941457;28;19921;-78
2022/06/20 08:03:33;;;;;;;;;;;24.50;99.90;;;;;;6948980;28;20374;-80
2022/06/20 08:06:58;;;;;;;;;;;24.60;99.90;;;;;;6958831;28;19920;-78
2022/06/20 08:10:25;;;;;;;;;;;24.60;99.90;;;;;;6947753;28;19921;-79
2022/06/20 08:13:49;;;;;;;;;;;24.70;99.90;;;;;;6958138;28;19920;-79
2022/06/20 08:17:12;;;;;;;;;;;24.80;99.90;;;;;;6958728;28;19921;-80
2022/06/20 08:20:39;;;;;;;;;;;24.80;99.90;;;;;;6948997;28;20354;-79
2022/06/20 08:24:03;;;;;;;;;;;25.00;99.90;;;;;;6946285;28;19921;-78
2022/06/20 08:27:30;;;;;;;;;;;25.00;99.90;;;;;;6946266;28;19928;-78
2022/06/20 08:30:54;;;;;;;;;;;25.00;99.90;;;;;;6946457;28;20370;-79
2022/06/20 08:34:19;;;;;;;;;;;25.20;99.90;;;;;;6946415;28;19921;-80
2022/06/20 08:37:45;;;;;;;;;;;25.30;97.40;;;;;;6946066;28;19921;-77
2022/06/20 08:41:42;;;;;;;;;;;25.30;95.00;;;;;;6945766;28;19921;-79
2022/06/20 08:45:19;;;;;;;;;;;25.30;94.50;;;;;;6941349;28;19943;-78
2022/06/20 08:49:09;;;;;;;;;;;25.50;97.80;;;;;;6946128;28;19972;-78
2022/06/20 08:52:56;;;;;;;;;;;25.60;99.90;;;;;;6945562;28;19921;-80
2022/06/20 08:56:27;;;;;;;;;;;25.60;99.90;;;;;;6945872;28;19948;-78
2022/06/20 09:00:05;;;;;;;;;;;25.60;99.90;;;;;;6945709;28;19961;-78
2022/06/20 09:03:45;;;;;;;;;;;25.70;99.90;;;;;;6945254;28;19972;-78
2022/06/20 09:07:18;;;;;;;;;;;25.90;99.90;;;;;;6945320;28;19921;-78
2022/06/20 09:10:49;;;;;;;;;;;25.90;99.40;;;;;;6945261;28;19932;-78
2022/06/20 09:14:23;;;;;;;;;;;25.90;99.50;;;;;;6944820;28;20297;-78
2022/06/20 09:17:58;;;;;;;;;;;26.10;98.60;;;;;;6945145;28;19928;-78
2022/06/20 09:21:27;;;;;;;;;;;26.20;98.30;;;;;;6944977;28;20377;-78
2022/06/20 09:24:57;;;;;;;;;;;26.30;98.30;;;;;;6944641;28;20019;-78
2022/06/20 09:28:38;;;;;;;;;;;26.30;97.60;;;;;;6944772;28;20014;-77
2022/06/20 09:32:24;;;;;;;;;;;26.30;96.90;;;;;;6944838;28;19921;-78
2022/06/20 09:36:01;;;;;;;;;;;26.30;95.30;;;;;;6943621;28;19971;-78
2022/06/20 09:39:34;;;;;;;;;;;26.30;93.70;;;;;;6944389;28;19921;-78
2022/06/20 09:43:01;;;;;;;;;;;26.50;93.70;;;;;;6944362;28;19921;-79
2022/06/20 09:46:29;;;;;;;;;;;26.50;95.60;;;;;;6944492;28;19967;-77
2022/06/20 09:50:00;;;;;;;;;;;26.50;95.20;;;;;;6944119;28;19921;-79
2022/06/20 09:53:46;;;;;;;;;;;26.50;95.40;;;;;;6944560;28;20398;-78
2022/06/20 09:57:15;;;;;;;;;;;26.60;95.10;;;;;;6947991;28;19932;-78
2022/06/20 10:00:42;;;;;;;;;;;26.70;94.90;;;;;;6944994;28;19984;-78
2022/06/20 10:04:12;;;;;;;;;;;26.60;93.90;;;;;;6943173;28;20467;-79
2022/06/20 10:07:44;;;;;;;;;;;26.80;94.30;;;;;;6944352;28;20301;-79
2022/06/20 10:11:10;;;;;;;;;;;27.00;93.00;;;;;;6944023;28;20505;-79
2022/06/20 10:14:44;;;;;;;;;;;27.10;91.30;;;;;;6944477;28;20275;-77
2022/06/20 10:18:19;;;;;;;;;;;27.30;90.60;;;;;;6943549;28;19937;-78
2022/06/20 10:21:46;;;;;;;;;;;27.30;92.80;;;;;;6943752;28;20011;-78
2022/06/20 10:25:28;;;;;;;;;;;27.40;92.10;;;;;;6942798;28;19979;-78
2022/06/20 10:28:54;;;;;;;;;;;27.50;85.50;;;;;;6943868;28;20367;-78
2022/06/20 10:32:18;;;;;;;;;;;27.50;82.30;;;;;;6943597;28;19972;-79
2022/06/20 10:35:45;;;;;;;;;;;27.40;90.20;;;;;;6943200;28;19928;-79
2022/06/20 10:39:12;;;;;;;;;;;27.60;91.80;;;;;;6943235;28;19966;-78
2022/06/20 10:42:35;;;;;;;;;;;27.60;91.20;;;;;;6943216;28;19921;-77
2022/06/20 10:46:00;;;;;;;;;;;27.70;91.50;;;;;;6943141;28;19928;-78
2022/06/20 10:49:46;;;;;;;;;;;27.70;90.70;;;;;;6943376;28;19921;-79
2022/06/20 10:53:15;;;;;;;;;;;27.80;90.90;;;;;;6943265;28;20394;-78
2022/06/20 10:56:46;;;;;;;;;;;27.80;90.00;;;;;;6943744;28;19975;-79
2022/06/20 11:00:11;;;;;;;;;;;27.90;90.00;;;;;;6943630;28;20441;-79
2022/06/20 11:04:20;;;;;;;;;;;27.90;89.20;;;;;;6948237;28;20396;-80
2022/06/20 11:07:49;;;;;;;;;;;27.90;88.10;;;;;;6925842;28;19928;-81
2022/06/20 11:11:22;;;;;;;;;;;28.00;88.20;;;;;;6946140;28;20342;-79
2022/06/20 11:14:50;;;;;;;;;;;28.00;84.90;;;;;;6944936;28;20061;-78
2022/06/20 11:18:24;;;;;;;;;;;28.00;86.50;;;;;;6943977;28;19943;-78
2022/06/20 11:21:51;;;;;;;;;;;28.20;86.00;;;;;;6944597;28;19979;-80
2022/06/20 11:25:23;;;;;;;;;;;28.20;83.80;;;;;;6942788;28;19928;-77
2022/06/20 11:29:07;;;;;;;;;;;28.20;83.30;;;;;;6942812;28;19952;-79
2022/06/20 11:32:36;;;;;;;;;;;28.30;80.70;;;;;;6942640;28;19925;-77
2022/06/20 11:36:00;;;;;;;;;;;28.20;79.60;;;;;;6943232;28;20383;-78
2022/06/20 11:39:33;;;;;;;;;;;28.30;80.10;;;;;;6948336;28;19921;-77
2022/06/20 11:43:40;;;;;;;;;;;28.40;81.20;;;;;;6947859;28;19921;-78
2022/06/20 11:47:16;;;;;;;;;;;28.30;77.70;;;;;;6937119;28;19921;-79
2022/06/20 11:50:43;;;;;;;;;;;28.20;75.30;;;;;;6948752;28;19928;-79
2022/06/20 11:54:19;;;;;;;;;;;28.20;73.40;;;;;;6947292;28;19921;-78
2022/06/20 11:57:54;;;;;;;;;;;28.20;71.80;;;;;;6947269;28;19928;-78
2022/06/20 12:01:20;;;;;;;;;;;28.10;72.00;;;;;;6947329;28;20310;-78
2022/06/20 12:04:46;;;;;;;;;;;27.80;72.10;;;;;;6947362;28;19972;-79
2022/06/20 12:08:26;;;;;;;;;;;27.80;72.90;;;;;;6947216;28;19921;-80
2022/06/20 12:12:00;;;;;;;;;;;27.80;72.90;;;;;;6947003;28;19921;-77
2022/06/20 12:15:43;;;;;;;;;;;27.90;72.80;;;;;;6947207;28;19921;-79
2022/06/20 12:26:39;;;;;;;;;;;27.70;74.00;;;;;;6946729;28;20191;-77
2022/06/20 12:30:01;;;;;;;;;;;27.60;75.70;;;;;;6946948;28;19921;-78
2022/06/20 12:33:23;;;;;;;;;;;27.50;76.40;;;;;;6947095;28;19924;-79
2022/06/20 12:36:49;;;;;;;;;;;27.50;77.40;;;;;;6946624;28;19968;-78
2022/06/20 12:40:24;;;;;;;;;;;27.60;75.50;;;;;;6946069;28;19960;-78
2022/06/20 12:43:56;;;;;;;;;;;27.70;75.20;;;;;;6946604;28;20354;-79
2022/06/20 12:47:55;;;;;;;;;;;27.70;73.80;;;;;;6946221;28;19971;-79
2022/06/20 12:51:26;;;;;;;;;;;27.40;71.20;;;;;;6946333;28;19932;-79
2022/06/20 12:55:08;;;;;;;;;;;27.20;71.30;;;;;;6946065;28;19928;-78
2022/06/20 12:58:43;;;;;;;;;;;27.30;70.90;;;;;;6946055;28;20290;-79
2022/06/20 13:02:12;;;;;;;;;;;27.00;70.30;;;;;;6945837;28;20014;-78
2022/06/20 13:05:54;;;;;;;;;;;26.60;71.00;;;;;;6945611;28;19921;-79
2022/06/20 13:09:37;;;;;;;;;;;26.50;71.20;;;;;;6945288;28;19928;-77
2022/06/20 13:13:17;;;;;;;;;;;26.30;72.00;;;;;;6938420;28;19972;-79
2022/06/20 13:16:48;;;;;;;;;;;26.30;72.30;;;;;;6945207;28;19932;-78
2022/06/20 13:20:25;;;;;;;;;;;26.30;75.00;;;;;;6946108;28;19933;-78
2022/06/20 13:24:02;;;;;;;;;;;26.40;76.50;;;;;;6945520;28;19964;-79
2022/06/20 13:27:33;;;;;;;;;;;26.50;76.20;;;;;;6945349;28;19928;-78
2022/06/20 13:31:05;;;;;;;;;;;26.50;76.30;;;;;;6944921;28;20353;-79
2022/06/20 13:34:35;;;;;;;;;;;26.50;77.90;;;;;;6945016;28;20410;-79
2022/06/20 13:38:03;;;;;;;;;;;26.50;77.50;;;;;;6944910;28;19928;-81
2022/06/20 13:41:30;;;;;;;;;;;26.50;78.40;;;;;;6945221;28;19928;-78
2022/06/20 13:44:57;;;;;;;;;;;26.40;77.30;;;;;;6945017;28;19928;-78
2022/06/20 13:48:25;;;;;;;;;;;26.20;78.30;;;;;;6944708;28;19921;-79
2022/06/20 13:51:51;;;;;;;;;;;26.20;78.10;;;;;;6944496;28;19944;-78
2022/06/20 13:55:19;;;;;;;;;;;26.10;79.70;;;;;;6944794;28;19928;-78
2022/06/20 13:58:46;;;;;;;;;;;26.10;79.70;;;;;;6944959;28;19920;-78
2022/06/20 14:02:31;;;;;;;;;;;26.00;80.70;;;;;;6946587;28;19921;-80
2022/06/20 14:06:04;;;;;;;;;;;25.90;81.40;;;;;;6951100;28;19967;-78
2022/06/20 14:09:29;;;;;;;;;;;25.60;82.20;;;;;;6945702;28;19928;-79
2022/06/20 14:12:55;;;;;;;;;;;25.50;82.50;;;;;;6949602;28;19924;-79
2022/06/20 14:16:21;;;;;;;;;;;25.60;82.90;;;;;;6951176;28;19936;-80
2022/06/20 14:19:46;;;;;;;;;;;25.60;82.70;;;;;;6944154;28;19921;-79
2022/06/20 14:23:17;;;;;;;;;;;25.40;83.60;;;;;;6940477;28;20004;-79
2022/06/20 14:26:39;;;;;;;;;;;25.30;84.60;;;;;;6940102;28;20560;-87
2022/06/20 14:30:05;;;;;;;;;;;25.30;86.10;;;;;;6941416;28;19925;-79
2022/06/20 14:33:33;;;;;;;;;;;25.10;86.60;;;;;;6941589;28;19928;-78
2022/06/20 14:37:01;;;;;;;;;;;25.10;88.30;;;;;;6938396;28;19979;-78
2022/06/20 14:40:27;;;;;;;;;;;25.00;90.10;;;;;;6939521;28;19921;-76
2022/06/20 14:43:50;;;;;;;;;;;24.90;91.30;;;;;;6936465;28;20007;-79
2022/06/20 14:47:26;;;;;;;;;;;24.70;93.00;;;;;;6942054;28;19928;-78
2022/06/20 14:50:52;;;;;;;;;;;24.60;94.40;;;;;;6937851;28;20701;-79
2022/06/20 14:54:18;;;;;;;;;;;24.60;96.00;;;;;;6939694;28;19928;-77
2022/06/20 14:57:45;;;;;;;;;;;24.60;95.90;;;;;;6946877;28;19967;-78
2022/06/20 15:01:26;;;;;;;;;;;24.60;96.70;;;;;;6935042;28;20299;-79
2022/06/20 15:04:52;;;;;;;;;;;24.70;96.60;;;;;;6939428;28;19921;-79
2022/06/20 15:08:18;;;;;;;;;;;24.90;96.90;;;;;;6931218;28;19925;-78
2022/06/20 15:11:48;;;;;;;;;;;25.00;97.10;;;;;;6932392;28;19932;-79
2022/06/20 15:15:22;;;;;;;;;;;25.00;97.30;;;;;;6943654;28;20370;-78
2022/06/20 15:18:46;;;;;;;;;;;25.20;97.50;;;;;;6944013;28;19925;-78
2022/06/20 15:22:18;;;;;;;;;;;25.30;96.80;;;;;;6942625;28;19972;-79
2022/06/20 15:25:45;;;;;;;;;;;25.80;94.70;;;;;;6940990;28;20955;-78
2022/06/20 15:29:11;;;;;;;;;;;26.30;94.90;;;;;;6940593;28;19921;-80
2022/06/20 15:32:43;;;;;;;;;;;26.10;95.00;;;;;;6941021;28;19928;-81
2022/06/20 15:36:23;;;;;;;;;;;26.60;92.90;;;;;;6946223;28;19971;-80
2022/06/20 15:39:50;;;;;;;;;;;26.30;91.30;;;;;;6924080;28;20324;-80
2022/06/20 15:43:20;;;;;;;;;;;26.50;91.40;;;;;;6947862;28;20270;-80
2022/06/20 15:46:46;;;;;;;;;;;26.70;91.40;;;;;;6947322;28;19921;-83
2022/06/20 15:50:19;;;;;;;;;;;27.20;90.00;;;;;;6952626;28;20247;-82
2022/06/20 15:53:58;;;;;;;;;;;27.60;90.00;;;;;;6962149;28;19929;-81
2022/06/20 15:57:31;;;;;;;;;;;27.80;87.50;;;;;;6955071;28;19928;-81
2022/06/20 16:01:00;;;;;;;;;;;28.40;81.80;;;;;;6949487;28;20001;-80
2022/06/20 16:04:29;;;;;;;;;;;28.70;78.30;;;;;;6948357;28;19948;-82
2022/06/20 16:08:21;;;;;;;;;;;28.80;79.20;;;;;;6946807;28;19964;-80
2022/06/20 16:11:46;;;;;;;;;;;28.70;79.40;;;;;;6946233;28;19921;-83
2022/06/20 16:15:12;;;;;;;;;;;28.90;80.60;;;;;;6944853;28;19928;-79
2022/06/20 16:18:39;;;;;;;;;;;28.90;78.70;;;;;;6945979;28;19979;-78
2022/06/20 16:22:04;;;;;;;;;;;29.00;77.10;;;;;;6933038;28;20394;-80
2022/06/20 16:25:29;;;;;;;;;;;29.00;78.10;;;;;;6933928;28;20048;-83
2022/06/20 16:29:02;;;;;;;;;;;28.80;77.00;;;;;;6942166;28;19925;-78
2022/06/20 16:32:32;;;;;;;;;;;28.90;78.50;;;;;;6944834;28;19955;-79
2022/06/20 16:35:57;;;;;;;;;;;28.80;77.30;;;;;;6947133;28;19925;-81
2022/06/20 16:39:21;;;;;;;;;;;29.50;76.90;;;;;;6945601;28;19921;-78
2022/06/20 16:42:47;;;;;;;;;;;29.80;75.30;;;;;;6929175;28;19921;-80
2022/06/20 16:46:14;;;;;;;;;;;29.90;72.20;;;;;;6949498;28;19921;-81
2022/06/20 16:49:41;;;;;;;;;;;29.30;72.70;;;;;;6948236;28;19929;-82
2022/06/20 16:53:13;;;;;;;;;;;29.10;73.90;;;;;;6945558;28;19921;-79
2022/06/20 16:56:37;;;;;;;;;;;29.10;75.30;;;;;;6927693;28;19972;-80
2022/06/20 17:00:01;;;;;;;;;;;29.00;74.50;;;;;;6943309;28;20362;-81
2022/06/20 17:03:28;;;;;;;;;;;29.20;72.70;;;;;;6943955;28;19921;-79
2022/06/20 17:06:55;;;;;;;;;;;29.20;72.50;;;;;;6943125;28;19921;-80
2022/06/20 17:10:23;;;;;;;;;;;29.30;72.30;;;;;;6943339;28;19925;-82
2022/06/20 17:13:58;;;;;;;;;;;29.50;72.30;;;;;;6937542;28;19920;-79
2022/06/20 17:17:25;;;;;;;;;;;28.90;72.70;;;;;;6942300;28;19921;-81
2022/06/20 17:20:50;;;;;;;;;;;29.00;72.50;;;;;;6943601;28;19921;-80
2022/06/20 17:24:22;;;;;;;;;;;29.30;71.90;;;;;;6944064;28;19979;-79
2022/06/20 17:27:53;;;;;;;;;;;29.40;70.20;;;;;;6928928;28;19972;-81
2022/06/20 17:31:24;;;;;;;;;;;29.30;71.90;;;;;;6943973;28;19921;-79
2022/06/20 17:34:49;;;;;;;;;;;29.00;72.20;;;;;;6943537;28;20359;-81
2022/06/20 17:38:23;;;;;;;;;;;29.40;72.00;;;;;;6936884;28;19972;-79
2022/06/20 17:41:50;;;;;;;;;;;29.10;71.60;;;;;;6942027;28;20270;-79
2022/06/20 17:45:18;;;;;;;;;;;28.90;71.90;;;;;;6942888;28;20394;-80
2022/06/20 17:48:46;;;;;;;;;;;29.00;72.30;;;;;;6928896;28;19921;-80
2022/06/20 17:52:18;;;;;;;;;;;28.70;71.00;;;;;;6939463;28;19936;-80
2022/06/20 17:55:49;;;;;;;;;;;28.20;72.10;;;;;;6941363;28;19921;-77
2022/06/20 17:59:23;;;;;;;;;;;27.90;72.80;;;;;;6944119;28;20027;-78
2022/06/20 18:02:52;;;;;;;;;;;27.50;74.10;;;;;;6944877;28;19936;-78
2022/06/20 18:06:18;;;;;;;;;;;27.10;75.10;;;;;;6944675;28;19928;-79
2022/06/20 18:09:44;;;;;;;;;;;27.00;74.20;;;;;;6939883;28;19976;-82
2022/06/20 18:13:16;;;;;;;;;;;27.00;73.50;;;;;;6941886;28;19921;-79
2022/06/20 18:16:44;;;;;;;;;;;26.90;73.10;;;;;;6934125;28;19920;-78
2022/06/20 18:20:09;;;;;;;;;;;26.70;73.40;;;;;;6943183;28;19931;-77
2022/06/20 18:23:35;;;;;;;;;;;26.50;74.20;;;;;;6941089;28;19921;-78
2022/06/20 18:27:01;;;;;;;;;;;26.40;74.10;;;;;;6941880;28;19971;-79
2022/06/20 18:30:24;;;;;;;;;;;26.20;75.30;;;;;;6941322;28;20286;-80
2022/06/20 18:33:50;;;;;;;;;;;26.30;75.30;;;;;;6937885;28;19921;-79
2022/06/20 18:37:14;;;;;;;;;;;26.20;75.20;;;;;;6942696;28;20366;-77
2022/06/20 18:40:37;;;;;;;;;;;26.00;75.80;;;;;;6936645;28;20390;-81
2022/06/20 18:43:59;;;;;;;;;;;25.80;76.70;;;;;;6939562;28;20351;-80
2022/06/20 18:47:31;;;;;;;;;;;25.70;75.70;;;;;;6941786;28;20339;-83
2022/06/20 18:51:00;;;;;;;;;;;25.50;76.20;;;;;;6942424;28;20341;-81
2022/06/20 18:54:29;;;;;;;;;;;25.50;76.30;;;;;;6930472;28;20379;-79
2022/06/20 18:58:01;;;;;;;;;;;25.30;77.40;;;;;;6938819;28;19925;-79
2022/06/20 19:01:36;;;;;;;;;;;25.10;77.70;;;;;;6941290;28;19921;-77
2022/06/20 19:05:13;;;;;;;;;;;24.90;78.00;;;;;;6938772;28;19920;-78
2022/06/20 19:09:02;;;;;;;;;;;24.70;78.80;;;;;;6943568;28;19928;-78
2022/06/20 19:12:44;;;;;;;;;;;24.50;79.60;;;;;;6926637;28;19968;-78
2022/06/20 19:16:18;;;;;;;;;;;24.40;80.10;;;;;;6938055;28;19980;-79
2022/06/20 19:19:50;;;;;;;;;;;24.30;80.70;;;;;;6938843;28;20071;-79
2022/06/20 19:23:26;;;;;;;;;;;24.20;81.20;;;;;;6937741;28;19933;-78
2022/06/20 19:26:56;;;;;;;;;;;24.00;82.00;;;;;;6937810;28;19921;-79
2022/06/20 19:30:22;;;;;;;;;;;23.90;82.00;;;;;;6938071;28;20275;-80
2022/06/20 19:33:45;;;;;;;;;;;23.70;83.30;;;;;;6938300;28;19960;-79
2022/06/20 19:37:12;;;;;;;;;;;23.60;83.70;;;;;;6937457;28;20408;-79
2022/06/20 19:40:44;;;;;;;;;;;23.50;84.10;;;;;;6937408;28;19921;-81
2022/06/20 19:44:28;;;;;;;;;;;23.40;85.10;;;;;;6938478;28;20401;-81
2022/06/20 19:47:56;;;;;;;;;;;23.30;85.20;;;;;;6936712;28;19932;-79
2022/06/20 19:51:51;;;;;;;;;;;23.30;85.40;;;;;;6937785;28;20037;-80
2022/06/20 19:55:28;;;;;;;;;;;23.10;85.50;;;;;;6939069;28;19925;-81
2022/06/20 19:58:51;;;;;;;;;;;23.00;85.70;;;;;;6942669;28;20405;-81
2022/06/20 20:02:16;;;;;;;;;;;23.00;85.70;;;;;;6942045;28;19951;-81
2022/06/20 20:05:39;;;;;;;;;;;22.80;85.50;;;;;;6943895;28;19925;-84
2022/06/20 20:09:02;;;;;;;;;;;22.70;86.20;;;;;;6942174;28;20295;-81
2022/06/20 20:12:25;;;;;;;;;;;22.70;85.70;;;;;;6944360;28;19925;-84
2022/06/20 20:15:49;;;;;;;;;;;22.70;85.90;;;;;;6943336;28;19943;-82
2022/06/20 20:19:16;;;;;;;;;;;22.70;86.50;;;;;;6942071;28;19960;-82
2022/06/20 20:22:41;;;;;;;;;;;22.70;86.20;;;;;;6944790;28;19948;-81
2022/06/20 20:26:19;;;;;;;;;;;22.70;85.70;;;;;;6945024;28;20405;-81
2022/06/20 20:30:08;;;;;;;;;;;22.60;85.80;;;;;;6943732;28;19975;-80
2022/06/20 20:33:42;;;;;;;;;;;22.50;86.70;;;;;;6957709;28;19921;-83